Time;durP1;ratioP1;P1;durP2;ratioP2;P2;SDS_P1;SDS_P2;PMS_P1;PMS_P2;Temp;Humidity;BMP_temperature;BMP_pressure;BME280_temperature;BME280_humidity;BME280_pressure;Samples;Min_cycle;Max_cycle;Signal;HPM_P1;HPM_P2
2023/05/12 00:00:02;;;;;;;9.30;4.10;;;;;;;;;;4967879;28;20077;-82
2023/05/12 00:02:37;;;;;;;9.82;4.00;;;;;;;;;;4960456;28;20107;-83
2023/05/12 00:05:04;;;;;;;8.30;4.20;;;;;;;;;;4969680;28;20055;-82
2023/05/12 00:07:30;;;;;;;7.18;3.83;;;;;;;;;;4969776;28;20061;-83
2023/05/12 00:09:57;;;;;;;6.43;3.97;;;;;;;;;;4968421;28;20051;-83
2023/05/12 00:12:24;;;;;;;10.27;4.78;;;;;;;;;;4969157;28;20146;-82
2023/05/12 00:14:50;;;;;;;11.25;4.10;;;;;;;;;;4970338;28;20047;-83
2023/05/12 00:17:17;;;;;;;7.20;3.97;;;;;;;;;;4971805;28;20054;-84
2023/05/12 00:19:43;;;;;;;12.98;3.97;;;;;;;;;;4971237;28;20538;-83
2023/05/12 00:22:10;;;;;;;8.75;3.75;;;;;;;;;;4971291;28;20142;-83
2023/05/12 00:24:37;;;;;;;12.65;3.92;;;;;;;;;;4984762;28;20491;-83
2023/05/12 00:27:03;;;;;;;8.07;3.88;;;;;;;;;;4967947;28;20233;-84
2023/05/12 00:29:31;;;;;;;5.25;3.88;;;;;;;;;;4974761;28;20049;-84
2023/05/12 00:31:57;;;;;;;11.20;4.10;;;;;;;;;;4954009;28;20415;-83
2023/05/12 00:34:25;;;;;;;10.10;4.22;;;;;;;;;;4954178;29;20131;-84
2023/05/12 00:36:52;;;;;;;9.18;4.07;;;;;;;;;;4952658;28;20066;-83
2023/05/12 00:39:19;;;;;;;7.32;3.83;;;;;;;;;;4968555;28;20137;-84
2023/05/12 00:41:47;;;;;;;10.10;3.88;;;;;;;;;;4969312;28;20126;-82
2023/05/12 00:44:13;;;;;;;7.13;4.30;;;;;;;;;;4972547;28;20077;-83
2023/05/12 00:46:40;;;;;;;12.57;4.20;;;;;;;;;;4959874;28;20039;-83
2023/05/12 00:49:13;;;;;;;8.52;4.45;;;;;;;;;;4958829;28;20054;-83
2023/05/12 00:51:39;;;;;;;9.02;4.68;;;;;;;;;;4958891;28;20043;-83
2023/05/12 00:54:06;;;;;;;11.63;4.43;;;;;;;;;;4943319;28;20058;-83
2023/05/12 00:56:38;;;;;;;10.00;4.78;;;;;;;;;;4959851;28;20127;-83
2023/05/12 00:59:07;;;;;;;7.60;4.82;;;;;;;;;;4962973;28;20129;-84
2023/05/12 01:01:37;;;;;;;9.85;5.00;;;;;;;;;;4966606;28;20100;-84
2023/05/12 01:04:04;;;;;;;8.75;4.57;;;;;;;;;;4970807;28;20152;-83
2023/05/12 01:06:31;;;;;;;8.05;5.00;;;;;;;;;;4978925;28;20093;-83
2023/05/12 01:08:58;;;;;;;7.75;4.63;;;;;;;;;;4981025;28;20515;-84
2023/05/12 01:11:24;;;;;;;8.32;4.40;;;;;;;;;;4978949;28;20459;-84
2023/05/12 01:13:51;;;;;;;10.25;4.68;;;;;;;;;;4978881;28;20431;-82
2023/05/12 01:16:21;;;;;;;5.93;4.20;;;;;;;;;;4962921;28;20046;-83
2023/05/12 01:18:50;;;;;;;8.65;4.47;;;;;;;;;;4979426;28;20038;-84
2023/05/12 01:21:17;;;;;;;7.93;4.00;;;;;;;;;;4976522;28;20626;-83
2023/05/12 01:23:47;;;;;;;8.05;4.18;;;;;;;;;;5003471;28;20038;-83
2023/05/12 01:26:14;;;;;;;6.93;4.53;;;;;;;;;;4995857;28;20038;-83
2023/05/12 01:28:41;;;;;;;9.30;4.70;;;;;;;;;;4999957;28;20054;-82
2023/05/12 01:31:08;;;;;;;7.82;4.20;;;;;;;;;;4947441;28;20070;-84
2023/05/12 01:33:36;;;;;;;6.97;4.35;;;;;;;;;;4964692;28;20051;-84
2023/05/12 01:36:04;;;;;;;11.25;4.93;;;;;;;;;;4957798;29;20080;-84
2023/05/12 01:38:31;;;;;;;7.88;4.53;;;;;;;;;;4957197;29;20078;-82
2023/05/12 01:40:58;;;;;;;10.38;4.43;;;;;;;;;;4957531;28;20627;-83
2023/05/12 01:43:25;;;;;;;8.18;4.05;;;;;;;;;;4946505;28;20051;-83
2023/05/12 01:45:51;;;;;;;5.95;4.28;;;;;;;;;;4946168;28;20102;-83
2023/05/12 01:48:18;;;;;;;8.00;4.10;;;;;;;;;;4961821;28;20043;-83
2023/05/12 01:50:45;;;;;;;12.48;4.20;;;;;;;;;;4961743;28;20043;-83
2023/05/12 01:53:16;;;;;;;12.70;4.35;;;;;;;;;;4947615;28;20047;-83
2023/05/12 01:55:43;;;;;;;8.50;4.47;;;;;;;;;;4959252;28;20146;-84
2023/05/12 01:58:10;;;;;;;6.57;4.10;;;;;;;;;;4960712;28;20043;-83
2023/05/12 02:00:37;;;;;;;5.93;4.15;;;;;;;;;;4958583;28;20459;-83
2023/05/12 02:03:08;;;;;;;10.13;4.32;;;;;;;;;;4972335;28;20043;-83
2023/05/12 02:05:34;;;;;;;10.90;4.53;;;;;;;;;;4995698;28;20085;-83
2023/05/12 02:08:03;;;;;;;6.85;4.40;;;;;;;;;;4963392;28;20151;-84
2023/05/12 02:10:29;;;;;;;7.63;4.50;;;;;;;;;;4959305;28;20166;-82
2023/05/12 02:12:56;;;;;;;9.75;4.60;;;;;;;;;;4991153;28;20527;-83
2023/05/12 02:15:23;;;;;;;10.27;4.75;;;;;;;;;;4992709;28;20066;-82
2023/05/12 02:17:53;;;;;;;9.02;5.28;;;;;;;;;;4975647;28;20083;-83
2023/05/12 02:20:21;;;;;;;8.35;4.75;;;;;;;;;;4975852;28;20047;-82
2023/05/12 02:22:50;;;;;;;8.70;4.85;;;;;;;;;;4977063;28;20492;-83
2023/05/12 02:25:17;;;;;;;8.50;4.93;;;;;;;;;;5006552;28;20077;-84
2023/05/12 02:27:44;;;;;;;8.40;4.85;;;;;;;;;;4968452;28;20131;-84
2023/05/12 02:30:11;;;;;;;10.63;5.20;;;;;;;;;;4966273;28;20702;-82
2023/05/12 02:32:37;;;;;;;11.38;4.68;;;;;;;;;;4975891;28;20070;-84
2023/05/12 02:35:06;;;;;;;9.52;5.28;;;;;;;;;;4952940;28;20142;-83
2023/05/12 02:37:33;;;;;;;8.48;4.50;;;;;;;;;;4960877;28;20043;-83
2023/05/12 02:40:00;;;;;;;6.70;4.28;;;;;;;;;;4959575;28;20192;-83
2023/05/12 02:42:32;;;;;;;10.90;4.07;;;;;;;;;;4958770;28;20123;-83
2023/05/12 02:44:59;;;;;;;14.48;4.75;;;;;;;;;;4942329;28;20129;-84
2023/05/12 02:47:25;;;;;;;7.97;4.88;;;;;;;;;;4958222;28;20047;-83
2023/05/12 02:49:54;;;;;;;13.50;5.00;;;;;;;;;;4941685;28;20062;-82
2023/05/12 02:52:21;;;;;;;10.48;5.03;;;;;;;;;;4956830;28;20031;-83
2023/05/12 02:54:47;;;;;;;7.88;5.20;;;;;;;;;;4969973;28;20047;-84
2023/05/12 02:57:14;;;;;;;15.25;5.80;;;;;;;;;;4953804;29;20047;-85
2023/05/12 02:59:41;;;;;;;7.93;4.93;;;;;;;;;;4954309;29;20047;-82
2023/05/12 03:02:07;;;;;;;11.52;5.53;;;;;;;;;;4962263;28;20043;-83
2023/05/12 03:04:34;;;;;;;10.20;5.55;;;;;;;;;;4969285;28;20143;-86
2023/05/12 03:07:01;;;;;;;12.45;5.30;;;;;;;;;;4988631;28;20074;-82
2023/05/12 03:09:27;;;;;;;12.88;5.63;;;;;;;;;;4972628;28;20117;-84
2023/05/12 03:11:54;;;;;;;7.78;5.20;;;;;;;;;;4972028;28;20042;-83
2023/05/12 03:14:25;;;;;;;10.20;6.22;;;;;;;;;;5001359;28;20456;-82
2023/05/12 03:16:51;;;;;;;10.50;5.70;;;;;;;;;;4974425;28;20066;-84
2023/05/12 03:19:18;;;;;;;16.58;5.40;;;;;;;;;;4974262;28;20039;-83
2023/05/12 03:21:45;;;;;;;7.43;4.97;;;;;;;;;;4976699;28;20065;-84
2023/05/12 03:24:14;;;;;;;9.65;5.07;;;;;;;;;;4974322;28;20043;-84
2023/05/12 03:26:41;;;;;;;7.43;4.70;;;;;;;;;;4957186;28;20092;-85
2023/05/12 03:29:10;;;;;;;13.40;4.55;;;;;;;;;;4957330;28;20039;-84
2023/05/12 03:31:37;;;;;;;9.25;5.20;;;;;;;;;;4974197;28;20156;-84
2023/05/12 03:34:04;;;;;;;9.65;5.15;;;;;;;;;;4988097;28;20047;-84
2023/05/12 03:36:30;;;;;;;8.88;5.03;;;;;;;;;;4937591;28;20107;-84
2023/05/12 03:38:57;;;;;;;8.65;5.32;;;;;;;;;;4936322;29;20122;-84
2023/05/12 03:41:24;;;;;;;11.48;4.75;;;;;;;;;;4935091;29;20055;-85
2023/05/12 03:43:50;;;;;;;8.45;4.60;;;;;;;;;;4966445;28;20040;-84
2023/05/12 03:46:17;;;;;;;8.50;4.47;;;;;;;;;;4967144;28;20047;-83
2023/05/12 03:48:44;;;;;;;6.43;4.20;;;;;;;;;;4951136;28;20480;-84
2023/05/12 03:51:10;;;;;;;14.52;4.43;;;;;;;;;;4941288;28;20146;-83
2023/05/12 03:53:38;;;;;;;8.55;5.38;;;;;;;;;;4983311;28;20031;-83
2023/05/12 03:56:05;;;;;;;8.02;4.35;;;;;;;;;;4935411;28;20142;-82
2023/05/12 03:58:32;;;;;;;12.85;4.85;;;;;;;;;;4964485;28;20075;-84
2023/05/12 04:01:00;;;;;;;7.60;4.50;;;;;;;;;;4971433;28;20432;-83
2023/05/12 04:03:27;;;;;;;7.85;4.50;;;;;;;;;;4980487;28;20170;-83
2023/05/12 04:05:58;;;;;;;16.48;4.63;;;;;;;;;;4990959;28;20518;-83
2023/05/12 04:08:25;;;;;;;8.60;4.75;;;;;;;;;;4967256;28;20089;-85
2023/05/12 04:10:56;;;;;;;9.50;4.88;;;;;;;;;;4957939;28;20058;-84
2023/05/12 04:13:23;;;;;;;11.48;5.00;;;;;;;;;;4958519;28;20039;-83
2023/05/12 04:15:50;;;;;;;11.65;4.45;;;;;;;;;;4993803;28;20065;-83
2023/05/12 04:18:17;;;;;;;12.73;5.20;;;;;;;;;;4954906;28;20127;-82
2023/05/12 04:20:44;;;;;;;7.88;4.38;;;;;;;;;;4958798;28;20051;-83
2023/05/12 04:23:10;;;;;;;18.98;4.93;;;;;;;;;;4950149;28;20043;-81
2023/05/12 04:25:37;;;;;;;9.02;4.68;;;;;;;;;;4956654;28;20047;-82
2023/05/12 04:28:07;;;;;;;13.10;5.00;;;;;;;;;;4936468;28;20055;-82
2023/05/12 04:30:38;;;;;;;13.48;5.75;;;;;;;;;;4936706;28;20138;-81
2023/05/12 04:33:05;;;;;;;11.60;5.72;;;;;;;;;;4935335;28;20043;-82
2023/05/12 04:35:31;;;;;;;9.05;5.18;;;;;;;;;;4935010;28;20055;-83
2023/05/12 04:38:02;;;;;;;10.93;5.07;;;;;;;;;;4978025;28;20047;-81
2023/05/12 04:40:29;;;;;;;7.00;4.80;;;;;;;;;;4949396;28;20107;-79
2023/05/12 04:42:58;;;;;;;9.60;4.55;;;;;;;;;;4985589;28;20039;-80
2023/05/12 04:45:25;;;;;;;7.75;5.07;;;;;;;;;;4946597;29;20053;-83
2023/05/12 04:47:51;;;;;;;11.60;5.22;;;;;;;;;;4937353;29;20043;-82
2023/05/12 04:50:18;;;;;;;10.88;5.82;;;;;;;;;;4938910;28;20078;-83
2023/05/12 04:52:44;;;;;;;12.70;5.35;;;;;;;;;;4954846;28;20118;-83
2023/05/12 04:55:12;;;;;;;8.35;5.28;;;;;;;;;;4950743;28;20106;-82
2023/05/12 04:57:40;;;;;;;9.30;5.60;;;;;;;;;;4976222;28;20272;-82
2023/05/12 05:00:09;;;;;;;11.82;5.38;;;;;;;;;;4985746;28;20266;-81
2023/05/12 05:02:36;;;;;;;10.20;5.18;;;;;;;;;;4969196;28;20180;-82
2023/05/12 05:05:03;;;;;;;11.43;5.30;;;;;;;;;;4959406;28;20054;-83
2023/05/12 05:07:30;;;;;;;10.18;4.80;;;;;;;;;;4973191;28;20122;-82
2023/05/12 05:09:56;;;;;;;11.57;5.00;;;;;;;;;;4941401;28;20078;-84
2023/05/12 05:12:24;;;;;;;7.60;4.72;;;;;;;;;;4940315;28;20044;-82
2023/05/12 05:14:51;;;;;;;7.05;4.43;;;;;;;;;;4969419;28;20040;-83
2023/05/12 05:17:18;;;;;;;14.63;4.40;;;;;;;;;;4943601;28;20554;-80
2023/05/12 05:19:45;;;;;;;10.35;4.45;;;;;;;;;;4982559;28;20111;-84
2023/05/12 05:22:26;;;;;;;13.02;4.93;;;;;;;;;;4958878;28;20593;-85
2023/05/12 05:24:53;;;;;;;7.07;4.82;;;;;;;;;;4987493;28;20062;-83
2023/05/12 05:27:19;;;;;;;13.57;5.75;;;;;;;;;;4968326;28;20122;-80
2023/05/12 05:29:46;;;;;;;8.77;4.90;;;;;;;;;;4967504;28;20047;-81
2023/05/12 05:32:12;;;;;;;9.02;4.47;;;;;;;;;;4956720;28;20101;-82
2023/05/12 05:34:39;;;;;;;8.70;5.18;;;;;;;;;;4974818;28;20062;-83
2023/05/12 05:37:05;;;;;;;9.20;5.03;;;;;;;;;;4994753;28;20066;-83
2023/05/12 05:39:32;;;;;;;10.30;4.72;;;;;;;;;;4960429;28;20039;-84
2023/05/12 05:42:00;;;;;;;10.13;4.55;;;;;;;;;;4980734;28;20093;-82
2023/05/12 05:44:28;;;;;;;7.70;5.00;;;;;;;;;;4976107;28;20462;-83
2023/05/12 05:46:55;;;;;;;13.80;4.70;;;;;;;;;;4978914;28;20089;-82
2023/05/12 05:49:24;;;;;;;8.05;4.70;;;;;;;;;;4954569;28;20031;-82
2023/05/12 05:51:52;;;;;;;12.60;4.82;;;;;;;;;;4975953;28;20055;-82
2023/05/12 05:54:18;;;;;;;9.05;4.72;;;;;;;;;;4996371;28;20061;-82
2023/05/12 05:56:45;;;;;;;9.50;5.07;;;;;;;;;;4956932;28;20040;-82
2023/05/12 05:59:14;;;;;;;10.18;5.32;;;;;;;;;;4972903;28;20043;-80
2023/05/12 06:01:41;;;;;;;10.15;5.40;;;;;;;;;;4978932;28;20050;-81
2023/05/12 06:04:08;;;;;;;8.60;4.72;;;;;;;;;;4964243;28;20042;-81
2023/05/12 06:06:35;;;;;;;12.18;4.80;;;;;;;;;;4974682;28;20058;-82
2023/05/12 06:09:01;;;;;;;8.07;4.90;;;;;;;;;;4958507;28;20178;-83
2023/05/12 06:11:28;;;;;;;8.70;4.70;;;;;;;;;;4954891;28;20082;-83
2023/05/12 06:13:54;;;;;;;10.27;5.30;;;;;;;;;;4936104;28;20047;-81
2023/05/12 06:16:21;;;;;;;12.80;5.93;;;;;;;;;;4936819;28;20047;-81
2023/05/12 06:18:48;;;;;;;12.57;4.82;;;;;;;;;;4968802;28;20508;-80
2023/05/12 06:21:14;;;;;;;9.52;4.97;;;;;;;;;;4954283;28;20047;-81
2023/05/12 06:23:41;;;;;;;9.73;4.88;;;;;;;;;;4937592;28;20050;-81
2023/05/12 06:26:08;;;;;;;13.98;4.97;;;;;;;;;;4970537;28;20089;-81
2023/05/12 06:28:34;;;;;;;23.73;12.43;;;;;;;;;;4939185;29;20126;-81
2023/05/12 06:31:01;;;;;;;15.50;7.32;;;;;;;;;;4954570;28;20043;-80
2023/05/12 06:33:28;;;;;;;13.52;4.88;;;;;;;;;;4969263;28;20123;-81
2023/05/12 06:35:54;;;;;;;7.95;4.00;;;;;;;;;;4937904;28;20592;-82
2023/05/12 06:38:21;;;;;;;9.85;4.43;;;;;;;;;;4970500;28;20110;-81
2023/05/12 06:40:47;;;;;;;8.82;4.28;;;;;;;;;;4956136;28;20048;-81
2023/05/12 06:43:14;;;;;;;9.07;3.80;;;;;;;;;;4937592;28;20043;-83
2023/05/12 06:45:43;;;;;;;17.30;7.47;;;;;;;;;;4970194;28;20103;-80
2023/05/12 06:48:10;;;;;;;8.70;4.00;;;;;;;;;;4954121;28;20039;-82
2023/05/12 06:50:37;;;;;;;8.38;4.00;;;;;;;;;;4982934;28;20079;-83
2023/05/12 06:53:05;;;;;;;5.88;3.78;;;;;;;;;;4958305;28;20035;-80
2023/05/12 06:55:31;;;;;;;6.07;3.60;;;;;;;;;;4939854;28;20050;-84
2023/05/12 06:57:58;;;;;;;7.40;3.60;;;;;;;;;;4970248;28;20057;-81
2023/05/12 07:00:25;;;;;;;9.25;3.47;;;;;;;;;;4952759;28;20048;-81
2023/05/12 07:02:51;;;;;;;8.13;4.40;;;;;;;;;;4967617;28;20049;-81
2023/05/12 07:05:18;;;;;;;6.97;3.90;;;;;;;;;;4968618;28;20038;-82
2023/05/12 07:07:45;;;;;;;7.45;3.53;;;;;;;;;;4953686;28;20467;-82
2023/05/12 07:10:12;;;;;;;10.35;3.90;;;;;;;;;;4969358;28;20434;-80
2023/05/12 07:12:38;;;;;;;9.93;3.60;;;;;;;;;;4937882;29;20123;-82
2023/05/12 07:15:05;;;;;;;6.18;3.60;;;;;;;;;;4969315;28;20048;-82
2023/05/12 07:17:32;;;;;;;9.52;3.65;;;;;;;;;;4968942;28;20519;-81
2023/05/12 07:19:58;;;;;;;15.10;3.80;;;;;;;;;;4952293;28;20074;-81
2023/05/12 07:22:25;;;;;;;12.95;4.50;;;;;;;;;;4970789;28;20057;-82
2023/05/12 07:24:51;;;;;;;12.05;3.92;;;;;;;;;;4977391;28;20512;-82
2023/05/12 07:27:18;;;;;;;7.78;4.05;;;;;;;;;;4970147;28;20130;-81
2023/05/12 07:29:45;;;;;;;14.32;3.83;;;;;;;;;;4970992;28;20135;-81
2023/05/12 07:32:12;;;;;;;9.68;3.72;;;;;;;;;;4990530;28;20146;-84
2023/05/12 07:34:38;;;;;;;7.72;3.50;;;;;;;;;;4973203;28;20106;-83
2023/05/12 07:37:05;;;;;;;8.32;4.07;;;;;;;;;;4946385;28;20520;-85
2023/05/12 07:39:32;;;;;;;14.05;3.85;;;;;;;;;;4944322;28;20054;-82
2023/05/12 07:41:58;;;;;;;8.80;3.88;;;;;;;;;;4953883;28;20059;-83
2023/05/12 07:44:25;;;;;;;7.85;3.88;;;;;;;;;;4932290;28;20063;-80
2023/05/12 07:46:51;;;;;;;7.68;4.10;;;;;;;;;;4916483;28;20048;-82
2023/05/12 07:49:18;;;;;;;13.88;3.75;;;;;;;;;;4949104;28;20121;-81
2023/05/12 07:51:45;;;;;;;9.32;3.92;;;;;;;;;;4973995;28;20035;-82
2023/05/12 07:54:12;;;;;;;10.18;3.10;;;;;;;;;;4939380;28;20059;-81
2023/05/12 07:56:38;;;;;;;7.88;3.50;;;;;;;;;;4961491;28;20051;-81
2023/05/12 07:59:06;;;;;;;6.93;3.10;;;;;;;;;;4960428;28;20390;-82
2023/05/12 08:01:33;;;;;;;7.75;3.15;;;;;;;;;;4980787;28;20053;-80
2023/05/12 08:04:00;;;;;;;8.23;3.10;;;;;;;;;;4945359;28;20047;-82
2023/05/12 08:06:27;;;;;;;10.80;3.55;;;;;;;;;;4969537;28;20047;-83
2023/05/12 08:08:56;;;;;;;9.05;3.33;;;;;;;;;;4972869;28;20126;-82
2023/05/12 08:11:23;;;;;;;4.78;3.08;;;;;;;;;;4953802;28;20047;-82
2023/05/12 08:13:50;;;;;;;6.85;3.17;;;;;;;;;;4988190;28;20050;-83
2023/05/12 08:16:17;;;;;;;9.10;3.13;;;;;;;;;;4971098;28;20058;-83
2023/05/12 08:18:43;;;;;;;4.05;2.75;;;;;;;;;;4971518;28;20107;-79
2023/05/12 08:21:10;;;;;;;6.82;3.15;;;;;;;;;;4970614;28;20073;-80
2023/05/12 08:23:37;;;;;;;13.30;3.20;;;;;;;;;;4954606;28;20107;-78
2023/05/12 08:26:04;;;;;;;10.07;2.92;;;;;;;;;;4970697;28;20074;-82
2023/05/12 08:28:31;;;;;;;6.70;3.40;;;;;;;;;;4971179;28;20051;-80
2023/05/12 08:30:57;;;;;;;5.30;2.55;;;;;;;;;;4960680;28;20055;-79
2023/05/12 08:33:24;;;;;;;5.82;2.42;;;;;;;;;;4969336;28;20047;-82
2023/05/12 08:35:51;;;;;;;9.70;2.50;;;;;;;;;;4953957;28;20106;-84
2023/05/12 08:38:17;;;;;;;6.70;2.40;;;;;;;;;;4937944;29;20126;-83
2023/05/12 08:41:03;;;;;;;5.90;2.67;;;;;;;;;;4952222;29;20043;-81
2023/05/12 08:43:42;;;;;;;6.90;3.03;;;;;;;;;;4952494;28;20085;-82
2023/05/12 08:46:10;;;;;;;5.07;2.30;;;;;;;;;;4968458;28;20054;-83
2023/05/12 08:48:37;;;;;;;9.15;2.45;;;;;;;;;;4952856;28;20051;-83
2023/05/12 08:51:10;;;;;;;4.53;2.50;;;;;;;;;;4952226;28;20525;-87
2023/05/12 08:53:41;;;;;;;9.15;2.88;;;;;;;;;;4936020;28;20066;-87
2023/05/12 08:56:18;;;;;;;4.80;2.40;;;;;;;;;;4936949;28;20051;-86
2023/05/12 08:58:50;;;;;;;4.47;2.45;;;;;;;;;;4944879;28;20043;-85
2023/05/12 09:01:20;;;;;;;7.10;2.42;;;;;;;;;;4969110;28;20487;-84
2023/05/12 09:03:47;;;;;;;6.00;2.70;;;;;;;;;;4960691;28;20058;-83
2023/05/12 09:06:13;;;;;;;6.35;2.75;;;;;;;;;;4994456;28;20042;-83
2023/05/12 09:08:40;;;;;;;4.10;2.40;;;;;;;;;;4976016;28;20042;-81
2023/05/12 09:11:10;;;;;;;5.20;2.63;;;;;;;;;;4991951;28;20101;-82
2023/05/12 09:13:49;;;;;;;6.47;2.72;;;;;;;;;;4977474;28;20148;-81
2023/05/12 09:16:17;;;;;;;12.77;2.78;;;;;;;;;;4952928;28;20413;-80
2023/05/12 09:18:51;;;;;;;6.00;2.50;;;;;;;;;;4972742;28;20043;-81
2023/05/12 09:21:18;;;;;;;3.30;2.20;;;;;;;;;;4956525;28;20047;-82
2023/05/12 09:24:11;;;;;;;8.73;3.13;;;;;;;;;;4938694;28;20054;-80
2023/05/12 09:26:44;;;;;;;4.72;2.40;;;;;;;;;;4951317;28;20361;-81
2023/05/12 09:29:11;;;;;;;8.88;2.28;;;;;;;;;;4972140;28;20044;-83
2023/05/12 09:31:54;;;;;;;5.90;2.10;;;;;;;;;;4966018;28;20567;-81
2023/05/12 09:34:30;;;;;;;6.53;2.17;;;;;;;;;;4959941;28;20043;-83
2023/05/12 09:36:58;;;;;;;4.50;1.83;;;;;;;;;;4974342;28;20054;-81
2023/05/12 09:39:24;;;;;;;7.70;2.15;;;;;;;;;;4984669;28;20113;-82
2023/05/12 09:41:52;;;;;;;9.45;2.40;;;;;;;;;;4973879;28;20036;-81
2023/05/12 09:44:18;;;;;;;6.05;2.00;;;;;;;;;;4952830;28;20043;-80
2023/05/12 09:46:45;;;;;;;6.20;1.90;;;;;;;;;;4936811;28;20049;-81
2023/05/12 09:49:12;;;;;;;3.97;1.67;;;;;;;;;;4941099;28;20039;-81
2023/05/12 09:51:39;;;;;;;3.00;1.45;;;;;;;;;;4956292;28;20122;-81
2023/05/12 09:54:05;;;;;;;3.20;1.83;;;;;;;;;;4957757;28;20056;-81
2023/05/12 09:56:36;;;;;;;7.07;1.70;;;;;;;;;;4943360;28;20058;-83
2023/05/12 09:59:04;;;;;;;8.38;1.58;;;;;;;;;;4975044;28;20059;-80
2023/05/12 10:01:30;;;;;;;5.75;2.25;;;;;;;;;;4974348;28;20051;-79
2023/05/12 10:03:58;;;;;;;3.72;1.80;;;;;;;;;;4953671;28;20055;-80
2023/05/12 10:06:32;;;;;;;4.90;1.85;;;;;;;;;;4953706;28;20073;-80
2023/05/12 10:09:07;;;;;;;9.13;2.00;;;;;;;;;;4954869;28;20177;-82
2023/05/12 10:11:34;;;;;;;4.60;2.13;;;;;;;;;;4970185;28;20044;-80
2023/05/12 10:14:01;;;;;;;5.78;2.10;;;;;;;;;;4966479;28;20071;-81
2023/05/12 10:16:28;;;;;;;5.85;2.28;;;;;;;;;;4985577;28;20049;-81
2023/05/12 10:18:55;;;;;;;3.35;1.95;;;;;;;;;;4979939;28;20077;-82
2023/05/12 10:21:27;;;;;;;8.55;2.00;;;;;;;;;;4971367;28;20503;-83
2023/05/12 10:23:54;;;;;;;7.15;2.20;;;;;;;;;;4956531;28;20070;-81
2023/05/12 10:26:20;;;;;;;3.13;1.85;;;;;;;;;;4959390;28;20138;-84
2023/05/12 10:28:47;;;;;;;4.10;2.25;;;;;;;;;;4959883;28;20055;-83
2023/05/12 10:31:14;;;;;;;4.07;2.20;;;;;;;;;;4955090;28;20039;-84
2023/05/12 10:33:41;;;;;;;4.70;2.28;;;;;;;;;;4954008;28;20035;-85
2023/05/12 10:36:18;;;;;;;8.02;2.20;;;;;;;;;;4955002;28;20065;-83
2023/05/12 10:38:46;;;;;;;6.45;2.13;;;;;;;;;;4953841;28;20035;-85
2023/05/12 10:41:13;;;;;;;6.90;2.35;;;;;;;;;;4953286;28;20068;-87
2023/05/12 10:43:41;;;;;;;5.35;2.10;;;;;;;;;;4942423;28;20059;-81
2023/05/12 10:46:08;;;;;;;3.63;1.70;;;;;;;;;;4949397;28;20402;-83
2023/05/12 10:48:35;;;;;;;3.28;1.98;;;;;;;;;;4947738;28;20050;-83
2023/05/12 10:51:09;;;;;;;4.90;1.67;;;;;;;;;;4947701;28;20047;-81
2023/05/12 10:53:37;;;;;;;6.90;1.92;;;;;;;;;;4947665;28;20050;-82
2023/05/12 10:56:20;;;;;;;5.82;2.10;;;;;;;;;;4964376;28;20409;-83
2023/05/12 10:59:05;;;;;;;4.45;1.75;;;;;;;;;;4951130;28;20134;-83
2023/05/12 11:01:32;;;;;;;3.47;1.63;;;;;;;;;;4950202;28;20083;-84
2023/05/12 11:04:08;;;;;;;7.07;2.20;;;;;;;;;;4958168;28;20051;-82
2023/05/12 11:06:36;;;;;;;4.32;2.20;;;;;;;;;;4950835;28;20464;-87
2023/05/12 11:09:03;;;;;;;7.93;2.00;;;;;;;;;;4953077;29;20492;-83
2023/05/12 11:11:31;;;;;;;5.43;2.05;;;;;;;;;;4953145;28;20050;-83
2023/05/12 11:13:59;;;;;;;4.40;2.00;;;;;;;;;;4953305;29;20038;-81
2023/05/12 11:16:26;;;;;;;4.72;2.20;;;;;;;;;;4948069;28;20044;-84
2023/05/12 11:19:01;;;;;;;5.18;2.17;;;;;;;;;;4953514;28;20602;-84
2023/05/12 11:21:29;;;;;;;5.57;2.45;;;;;;;;;;4953930;28;20044;-86
2023/05/12 11:23:56;;;;;;;10.45;2.30;;;;;;;;;;4973187;28;20051;-85
2023/05/12 11:26:22;;;;;;;6.03;2.20;;;;;;;;;;4972080;28;20051;-86
2023/05/12 11:28:49;;;;;;;7.93;1.83;;;;;;;;;;4938334;28;20051;-85
2023/05/12 11:31:19;;;;;;;9.70;1.92;;;;;;;;;;4969046;28;20102;-85
2023/05/12 11:33:46;;;;;;;9.20;2.00;;;;;;;;;;4966943;28;20050;-85
2023/05/12 11:36:41;;;;;;;4.72;2.15;;;;;;;;;;4963549;28;20456;-80
2023/05/12 11:39:15;;;;;;;4.82;2.30;;;;;;;;;;4932457;28;20130;-85
2023/05/12 11:42:05;;;;;;;6.93;2.20;;;;;;;;;;4939551;28;20146;-84
2023/05/12 11:44:38;;;;;;;;;;;;;;;;;;4940903;28;20051;-84
2023/05/12 11:47:23;;;;;;;10.60;2.05;;;;;;;;;;4919691;28;19926;-86
2023/05/12 11:53:20;;;;;;;3.78;2.05;;;;;;;;;;4922135;28;20058;-87
2023/05/12 11:55:55;;;;;;;5.15;2.10;;;;;;;;;;4949929;28;20122;-83
2023/05/12 11:58:26;;;;;;;11.15;2.30;;;;;;;;;;4940806;28;20047;-84
2023/05/12 12:00:56;;;;;;;6.82;2.10;;;;;;;;;;4952545;28;20055;-82
2023/05/12 12:03:23;;;;;;;5.40;1.85;;;;;;;;;;4982354;28;20074;-83
2023/05/12 12:05:57;;;;;;;4.65;2.10;;;;;;;;;;4962151;28;20440;-84
2023/05/12 12:08:23;;;;;;;4.30;2.10;;;;;;;;;;4973273;28;20078;-85
2023/05/12 12:10:50;;;;;;;4.05;1.75;;;;;;;;;;4986631;28;20101;-85
2023/05/12 12:13:20;;;;;;;6.13;2.15;;;;;;;;;;4987484;28;20069;-83
2023/05/12 12:15:50;;;;;;;6.25;2.00;;;;;;;;;;4954375;28;20042;-79
2023/05/12 12:18:17;;;;;;;6.75;2.10;;;;;;;;;;4970853;28;20197;-78
2023/05/12 12:20:45;;;;;;;8.63;1.95;;;;;;;;;;4968842;28;20141;-77
2023/05/12 12:23:12;;;;;;;3.05;1.80;;;;;;;;;;4984908;28;20496;-79
2023/05/12 12:25:38;;;;;;;3.42;1.90;;;;;;;;;;4966341;28;20614;-70
2023/05/12 12:28:05;;;;;;;6.10;1.75;;;;;;;;;;4984285;28;20419;-80
2023/05/12 12:30:32;;;;;;;4.68;1.65;;;;;;;;;;4955714;28;20415;-81
2023/05/12 12:32:59;;;;;;;3.42;1.75;;;;;;;;;;4951731;28;20090;-79
2023/05/12 12:35:26;;;;;;;2.78;1.60;;;;;;;;;;4950572;28;20051;-78
2023/05/12 12:37:52;;;;;;;8.13;1.88;;;;;;;;;;4950824;28;20130;-80
2023/05/12 12:40:19;;;;;;;2.95;1.65;;;;;;;;;;4953363;28;20138;-79
2023/05/12 12:42:45;;;;;;;5.20;1.60;;;;;;;;;;4969164;28;20078;-82
2023/05/12 12:45:12;;;;;;;3.08;1.45;;;;;;;;;;4957105;29;20075;-83
2023/05/12 12:47:39;;;;;;;4.20;1.80;;;;;;;;;;4953175;28;20062;-82
2023/05/12 12:50:06;;;;;;;3.65;1.77;;;;;;;;;;4952464;28;20055;-81
2023/05/12 12:52:32;;;;;;;5.95;1.48;;;;;;;;;;4954258;28;20055;-82
2023/05/12 12:54:59;;;;;;;7.35;1.80;;;;;;;;;;4954131;28;20051;-81
2023/05/12 12:57:26;;;;;;;3.42;1.98;;;;;;;;;;4954466;28;20047;-78
2023/05/12 12:59:52;;;;;;;6.28;1.65;;;;;;;;;;4952671;28;20074;-70
2023/05/12 13:02:19;;;;;;;6.80;1.90;;;;;;;;;;4955714;28;20043;-70
2023/05/12 13:04:46;;;;;;;5.68;1.80;;;;;;;;;;4980422;28;20091;-76
2023/05/12 13:07:12;;;;;;;11.23;1.83;;;;;;;;;;4957688;28;20078;-78
2023/05/12 13:09:39;;;;;;;6.03;1.98;;;;;;;;;;4954529;28;20039;-71
2023/05/12 13:12:06;;;;;;;3.17;1.80;;;;;;;;;;4967520;28;20066;-75
2023/05/12 13:14:32;;;;;;;5.68;1.73;;;;;;;;;;4949853;28;20411;-72
2023/05/12 13:16:59;;;;;;;3.72;1.90;;;;;;;;;;4981509;28;20043;-72
2023/05/12 13:19:27;;;;;;;2.70;1.60;;;;;;;;;;4943088;28;20047;-71
2023/05/12 13:21:54;;;;;;;6.35;1.63;;;;;;;;;;4946252;28;20046;-72
2023/05/12 13:24:20;;;;;;;3.33;1.55;;;;;;;;;;4968391;28;20036;-72
2023/05/12 13:26:47;;;;;;;4.45;1.80;;;;;;;;;;4929628;28;20144;-71
2023/05/12 13:29:13;;;;;;;2.63;1.50;;;;;;;;;;4928551;29;20841;-72
2023/05/12 13:31:41;;;;;;;5.90;1.77;;;;;;;;;;4945911;28;20058;-71
2023/05/12 13:34:08;;;;;;;4.93;1.63;;;;;;;;;;4942444;28;20051;-71
2023/05/12 13:36:34;;;;;;;5.88;1.90;;;;;;;;;;4922341;28;20102;-71
2023/05/12 13:39:02;;;;;;;5.97;2.25;;;;;;;;;;4967661;28;20063;-72
2023/05/12 13:41:29;;;;;;;3.28;2.13;;;;;;;;;;4943616;28;20047;-72
2023/05/12 13:43:55;;;;;;;4.05;2.10;;;;;;;;;;4946011;28;20592;-73
2023/05/12 13:46:22;;;;;;;7.75;1.67;;;;;;;;;;4944498;28;20047;-73
2023/05/12 13:48:50;;;;;;;6.63;1.58;;;;;;;;;;4963538;28;20074;-81
2023/05/12 13:51:17;;;;;;;6.43;1.90;;;;;;;;;;4935867;29;20043;-79
2023/05/12 13:53:44;;;;;;;4.70;1.95;;;;;;;;;;4953196;28;20063;-79
2023/05/12 13:56:14;;;;;;;2.92;1.80;;;;;;;;;;4972911;28;20055;-81
2023/05/12 13:58:41;;;;;;;6.30;2.00;;;;;;;;;;4969158;28;20059;-82
2023/05/12 14:01:08;;;;;;;6.32;1.70;;;;;;;;;;4935103;28;20063;-80
2023/05/12 14:03:35;;;;;;;8.65;2.05;;;;;;;;;;4941834;28;20057;-81
2023/05/12 14:06:03;;;;;;;4.07;1.70;;;;;;;;;;4959189;28;20051;-79
2023/05/12 14:08:29;;;;;;;4.93;2.00;;;;;;;;;;4952667;28;20093;-80
2023/05/12 14:10:57;;;;;;;3.28;1.80;;;;;;;;;;4951610;28;20051;-75
2023/05/12 14:13:29;;;;;;;4.25;1.83;;;;;;;;;;4966852;28;20105;-79
2023/05/12 14:15:56;;;;;;;4.40;1.83;;;;;;;;;;4967726;28;20073;-78
2023/05/12 14:18:23;;;;;;;3.55;1.80;;;;;;;;;;4959341;28;20103;-79
2023/05/12 14:20:50;;;;;;;11.18;2.30;;;;;;;;;;4963647;28;20051;-77
2023/05/12 14:23:17;;;;;;;4.88;2.22;;;;;;;;;;4961712;28;20038;-77
2023/05/12 14:25:43;;;;;;;9.02;2.33;;;;;;;;;;4937459;28;20126;-76
2023/05/12 14:28:10;;;;;;;8.82;2.13;;;;;;;;;;4966593;28;20143;-78
2023/05/12 14:30:36;;;;;;;9.10;1.88;;;;;;;;;;4983238;28;20051;-78
2023/05/12 14:33:03;;;;;;;7.75;1.80;;;;;;;;;;4967010;28;20075;-79
2023/05/12 14:35:30;;;;;;;9.35;2.40;;;;;;;;;;4970905;28;20477;-78
2023/05/12 14:37:57;;;;;;;10.57;2.03;;;;;;;;;;4951789;28;20055;-80
2023/05/12 14:40:24;;;;;;;6.15;1.90;;;;;;;;;;4972883;28;20134;-80
2023/05/12 14:42:51;;;;;;;6.03;1.80;;;;;;;;;;4936708;28;20077;-78
2023/05/12 14:45:17;;;;;;;4.75;1.90;;;;;;;;;;4949986;28;20073;-81
2023/05/12 14:47:44;;;;;;;3.25;1.80;;;;;;;;;;4969074;28;20800;-79